Isleton, California
Current Conditions -  °F | °C
As of 2:08 AM on Monday 20 Oct 2014 (Local Time) from KSUU Reporting Station
Scattered Clouds Scattered Clouds  
Wind Chill: 63°   Ceiling: Unl
Heat Index: 63°   Visibility: 10mi
Dew Point: 61°   Wind: 21mph
Humidity: 94%   Direction: 240°WSW
Pressure: 29.87"   Gusts: NA
Location:  38.16°N, 121.61°W
Report Text: KSUU 200908Z AUTO 24018KT 10SM SCT016 17/16 A2987 RMK AO2 $
Loading
Personal Weather Stations






























Interactive Weather Map
Tropical Storm Tracking
New forecast layout! Learn more

10-Day Weather Forecast

Advertisements
Track Severe Weather on mobile